Burley, ID (83318)

3:29 AM MST on March 05, 2015 (GMT -0700)
ITD Heyburn Interchange ID US | Change Station
CLOSE
Current Station
Personal Weather Station
Location: Heyburn, ID
Elevation: 4161 ft
Nearby Weather Stations

Elev 4161 ft 42.57 °N, 113.73 °W | Updated 59 minutes ago

Clear
Clear
19 °F
Feels Like 19 °F
N
3
Wind Variable Wind from South
Gusts 3.0 mph

Today
High -- | Low -- °F
--% Chance of Precip.
Yesterday
High -- | Low -- °F
Precip. -- in
7:04 AM 6:29 PM
Full, 100% visible
Pressure 30.32 in
Visibility 10.0 miles
Clouds Clear
Windchill 19 °F
Dew Point 9 °F
Humidity 64%
Rainfall in
Snow Depth Not available.
UV 0 out of 12
Pollen 3.20 out of 12
Air Quality Not available.
Flu Activity Not available.
METAR KTWF 050953Z AUTO 19010KT 10SM CLR M02/M11 A3031 RMK AO2 SLP266 T10221106

More Conditions Fewer Conditions

Pressure 30.32 in
Visibility 10.0 miles
Clouds Clear
Windchill 19 °F
Dew Point 9 °F
Humidity 64%
Rainfall in
Snow Depth Not available.
UV 0 out of 12
Pollen 3.20 out of 12
Air Quality Not available.
Flu Activity Not available.
METAR KTWF 050953Z AUTO 19010KT 10SM CLR M02/M11 A3031 RMK AO2 SLP266 T10221106

More Conditions Fewer Conditions

10-Day Weather Forecast

Almanac

Astronomy

Mar. 05, 2015 Rise Set
Actual Time
Civil Twilight
Nautical Twilight
Astronomical Twilight
Moon
Length of Visible Light
Length of Day
Tomorrow will be .
, % of the Moon is Illuminated

Today's Extremes

State Highs State Lows

Community

WunderPhotos

Upload Photos

1,802,714 photos uploaded!

WunderBlogs® & News

Nearby

Air Quality

  Air Quality AQ Index Pollutant
Not available.

Snow Depth

Station Depth Elevation

Earthquake Activity

City Distance Mag. Time & Date
Minimum magnitude displayed is 2.5.

Coastal Water Temperatures

Place Temperature

Nearby Weather Stations